createdAt,value
2018-06-01T00:00:10.561Z,0.00
2018-06-01T00:01:10.563Z,0.00
2018-06-01T00:02:10.572Z,0.00
2018-06-01T00:03:10.586Z,0.00
2018-06-01T00:04:10.596Z,0.00
2018-06-01T00:05:10.608Z,0.00
2018-06-01T00:06:10.627Z,0.00
2018-06-01T00:07:10.653Z,0.00
2018-06-01T00:08:10.644Z,0.00
2018-06-01T00:09:10.657Z,0.00
2018-06-01T00:10:10.669Z,0.00
2018-06-01T00:11:10.686Z,0.00
2018-06-01T00:12:10.704Z,0.00
2018-06-01T00:13:10.704Z,0.00
2018-06-01T00:14:10.724Z,0.00
2018-06-01T00:15:10.733Z,0.00
2018-06-01T00:16:10.744Z,0.00
2018-06-01T00:17:10.761Z,0.00
2018-06-01T00:18:10.774Z,0.00
2018-06-01T00:19:10.785Z,0.00
2018-06-01T00:20:10.803Z,0.00
2018-06-01T00:21:10.811Z,0.00
2018-06-01T00:22:10.816Z,0.00
2018-06-01T00:23:10.831Z,0.00
2018-06-01T00:24:10.843Z,0.00
2018-06-01T00:25:10.893Z,0.00
2018-06-01T00:26:10.904Z,0.00
2018-06-01T00:27:10.884Z,0.00
2018-06-01T00:28:10.888Z,0.00
2018-06-01T00:29:10.902Z,0.00
2018-06-01T00:30:10.915Z,0.00
2018-06-01T00:31:10.931Z,0.00
2018-06-01T00:32:10.942Z,0.00
2018-06-01T00:33:10.955Z,0.00
2018-06-01T00:34:10.969Z,0.00
2018-06-01T00:35:10.989Z,0.00
2018-06-01T00:36:10.991Z,0.00
2018-06-01T00:37:11.002Z,0.00
2018-06-01T00:38:11.012Z,0.00
2018-06-01T00:39:11.033Z,0.00
2018-06-01T00:40:11.036Z,0.00
2018-06-01T00:41:11.052Z,0.00
2018-06-01T00:42:11.067Z,0.00
2018-06-01T00:43:11.081Z,0.00
2018-06-01T00:44:11.083Z,0.00
2018-06-01T00:45:11.103Z,0.00
2018-06-01T00:46:11.106Z,0.00
2018-06-01T00:47:11.126Z,0.00
2018-06-01T00:48:11.129Z,0.00
2018-06-01T00:49:11.142Z,0.00
2018-06-01T00:50:11.156Z,0.00
2018-06-01T00:51:11.175Z,0.00
2018-06-01T00:52:11.178Z,0.00
2018-06-01T00:53:11.192Z,0.00
2018-06-01T00:54:11.203Z,0.00
2018-06-01T00:55:11.217Z,0.00
2018-06-01T00:56:11.246Z,0.00
2018-06-01T00:57:11.243Z,0.00
2018-06-01T00:58:11.254Z,0.00
2018-06-01T00:59:11.265Z,0.00
2018-06-01T01:00:11.277Z,0.00
2018-06-01T01:01:11.289Z,0.00
2018-06-01T01:02:11.301Z,0.00
2018-06-01T01:03:11.322Z,0.00
2018-06-01T01:04:11.321Z,0.00
2018-06-01T01:05:11.337Z,0.00
2018-06-01T01:06:11.352Z,0.00
2018-06-01T01:07:11.356Z,0.00
2018-06-01T01:08:11.370Z,0.00
2018-06-01T01:09:11.391Z,0.00
2018-06-01T01:10:11.395Z,0.00
2018-06-01T01:11:11.408Z,0.00
2018-06-01T01:12:11.419Z,0.00
2018-06-01T01:13:11.430Z,0.00
2018-06-01T01:14:11.442Z,0.00
2018-06-01T01:15:11.461Z,0.00
2018-06-01T01:16:11.467Z,0.00
2018-06-01T01:17:11.477Z,0.00
2018-06-01T01:18:11.491Z,0.00
2018-06-01T01:19:11.509Z,0.00
2018-06-01T01:20:11.518Z,0.00
2018-06-01T01:21:11.531Z,0.00
2018-06-01T01:22:11.535Z,0.00
2018-06-01T01:23:11.547Z,0.00
2018-06-01T01:24:11.572Z,0.00
2018-06-01T01:25:11.569Z,0.00
2018-06-01T01:26:11.602Z,0.00
2018-06-01T01:27:11.601Z,0.00
2018-06-01T01:28:11.607Z,0.00
2018-06-01T01:29:11.625Z,0.00
2018-06-01T01:30:11.635Z,0.00
2018-06-01T01:31:11.645Z,0.00
2018-06-01T01:32:11.660Z,0.00
2018-06-01T01:33:11.669Z,0.00
2018-06-01T01:34:11.689Z,0.00
2018-06-01T01:35:11.698Z,0.00
2018-06-01T01:36:11.704Z,0.00
2018-06-01T01:37:11.717Z,0.00
2018-06-01T01:38:11.732Z,0.00
2018-06-01T01:39:11.755Z,0.00
2018-06-01T01:40:11.768Z,0.00
2018-06-01T01:41:11.763Z,0.00
2018-06-01T01:42:11.775Z,0.00
2018-06-01T01:43:11.797Z,0.00
2018-06-01T01:44:11.801Z,0.00
2018-06-01T01:45:11.813Z,0.00
2018-06-01T01:46:11.822Z,0.00
2018-06-01T01:47:11.838Z,0.00
2018-06-01T01:48:11.856Z,0.00
2018-06-01T01:49:11.865Z,0.00
2018-06-01T01:50:11.870Z,0.00
2018-06-01T01:51:11.896Z,0.00
2018-06-01T01:52:11.902Z,0.00
2018-06-01T01:53:11.921Z,0.00
2018-06-01T01:54:11.917Z,0.00
2018-06-01T01:55:11.943Z,0.00
2018-06-01T01:56:11.942Z,0.00
2018-06-01T01:57:11.953Z,0.00
2018-06-01T01:58:11.970Z,0.00
2018-06-01T01:59:11.977Z,0.00
2018-06-01T02:00:11.991Z,0.00
2018-06-01T02:01:12.005Z,0.00
2018-06-01T02:02:12.013Z,0.00
2018-06-01T02:03:12.026Z,0.00
2018-06-01T02:04:12.043Z,0.00
2018-06-01T02:05:12.048Z,0.00
2018-06-01T02:06:12.061Z,0.00
2018-06-01T02:07:12.074Z,0.00
2018-06-01T02:08:12.103Z,0.00
2018-06-01T02:09:12.094Z,0.00
2018-06-01T02:10:12.112Z,0.00
2018-06-01T02:11:12.121Z,0.00
2018-06-01T02:12:12.132Z,0.00
2018-06-01T02:13:12.144Z,0.00
2018-06-01T02:14:12.152Z,0.00
2018-06-01T02:15:12.169Z,0.00
2018-06-01T02:16:12.189Z,0.00
2018-06-01T02:17:12.198Z,0.00
2018-06-01T02:18:12.207Z,0.00
2018-06-01T02:19:12.213Z,0.00
2018-06-01T02:20:12.233Z,0.00
2018-06-01T02:21:12.243Z,0.00
2018-06-01T02:22:12.256Z,0.00
2018-06-01T02:23:12.270Z,0.00
2018-06-01T02:24:12.271Z,0.00
2018-06-01T02:25:12.281Z,0.00
2018-06-01T02:26:12.296Z,0.00
2018-06-01T02:27:12.310Z,0.00
2018-06-01T02:28:12.331Z,0.00
2018-06-01T02:29:12.326Z,0.00
2018-06-01T02:30:12.340Z,0.00
2018-06-01T02:31:12.353Z,0.00
2018-06-01T02:32:12.370Z,0.00
2018-06-01T02:33:12.374Z,0.00
2018-06-01T02:34:12.393Z,0.00
2018-06-01T02:35:12.397Z,0.00
2018-06-01T02:36:12.408Z,0.00
2018-06-01T02:37:12.421Z,0.00
2018-06-01T02:38:12.443Z,0.00
2018-06-01T02:39:12.463Z,0.00
2018-06-01T02:40:12.469Z,0.00
2018-06-01T02:41:12.472Z,0.00
2018-06-01T02:42:12.476Z,0.00
2018-06-01T02:43:12.491Z,0.00
2018-06-01T02:44:12.502Z,0.00
2018-06-01T02:45:12.516Z,0.00
2018-06-01T02:46:12.539Z,0.00
2018-06-01T02:47:12.536Z,0.00
2018-06-01T02:48:12.549Z,0.00
2018-06-01T02:49:12.569Z,0.00
2018-06-01T02:50:12.580Z,0.00
2018-06-01T02:51:12.592Z,0.00
2018-06-01T02:52:12.596Z,0.00
2018-06-01T02:53:12.611Z,0.00
2018-06-01T02:54:12.629Z,4.00
2018-06-01T02:55:12.629Z,4.00
2018-06-01T02:56:12.646Z,4.00
2018-06-01T02:57:12.656Z,0.00
2018-06-01T02:58:12.668Z,4.00
2018-06-01T02:59:12.676Z,4.00
2018-06-01T03:00:12.688Z,8.00
2018-06-01T03:01:13.482Z,4.00
2018-06-01T03:02:12.711Z,8.00
2018-06-01T03:03:12.727Z,8.00
2018-06-01T03:04:12.733Z,12.00
2018-06-01T03:05:12.743Z,12.00
2018-06-01T03:06:12.758Z,16.00
2018-06-01T03:07:12.768Z,16.00
2018-06-01T03:08:12.782Z,20.00
2018-06-01T03:09:12.790Z,20.00
2018-06-01T03:10:12.806Z,24.00
2018-06-01T03:11:12.815Z,28.00
2018-06-01T03:12:12.834Z,28.00
2018-06-01T03:13:12.842Z,36.00
2018-06-01T03:14:12.848Z,36.00
2018-06-01T03:15:12.858Z,44.00
2018-06-01T03:16:12.876Z,52.00
2018-06-01T03:17:12.887Z,56.00
2018-06-01T03:18:12.896Z,60.00
2018-06-01T03:19:12.902Z,68.00
2018-06-01T03:20:12.915Z,76.00
2018-06-01T03:21:12.923Z,84.00
2018-06-01T03:22:12.948Z,92.00
2018-06-01T03:23:12.951Z,100.00
2018-06-01T03:24:12.960Z,108.00
2018-06-01T03:25:12.970Z,116.00
2018-06-01T03:26:12.993Z,124.00
2018-06-01T03:27:13.004Z,132.00
2018-06-01T03:28:13.013Z,120.00
2018-06-01T03:29:13.017Z,156.00
2018-06-01T03:30:13.034Z,160.00
2018-06-01T03:31:13.051Z,172.00
2018-06-01T03:32:13.054Z,184.00
2018-06-01T03:33:13.068Z,192.00
2018-06-01T03:34:13.105Z,200.00
2018-06-01T03:35:13.085Z,212.00
2018-06-01T03:36:13.098Z,224.00
2018-06-01T03:37:13.110Z,240.00
2018-06-01T03:38:13.118Z,256.00
2018-06-01T03:39:13.132Z,272.00
2018-06-01T03:40:13.143Z,284.00
2018-06-01T03:41:13.155Z,300.00
2018-06-01T03:42:13.165Z,312.00
2018-06-01T03:43:13.191Z,324.00
2018-06-01T03:44:13.186Z,340.00
2018-06-01T03:45:13.195Z,356.00
2018-06-01T03:46:13.207Z,376.00
2018-06-01T03:47:13.220Z,392.00
2018-06-01T03:48:13.236Z,416.00
2018-06-01T03:49:13.290Z,440.00
2018-06-01T03:50:13.261Z,472.00
2018-06-01T03:51:13.279Z,496.00
2018-06-01T03:52:13.280Z,520.00
2018-06-01T03:53:13.283Z,544.00
2018-06-01T03:54:13.304Z,564.00
2018-06-01T03:55:13.308Z,592.00
2018-06-01T03:56:13.324Z,620.00
2018-06-01T03:57:13.329Z,648.00
2018-06-01T03:58:13.344Z,672.00
2018-06-01T03:59:13.368Z,696.00
2018-06-01T04:00:13.374Z,724.00
2018-06-01T04:01:13.381Z,752.00
2018-06-01T04:02:13.393Z,788.00
2018-06-01T04:03:13.411Z,828.00
2018-06-01T04:04:13.412Z,876.00
2018-06-01T04:05:13.424Z,920.00
2018-06-01T04:06:13.434Z,972.00
2018-06-01T04:07:13.480Z,1020.00
2018-06-01T04:08:13.455Z,1080.00
2018-06-01T04:09:13.468Z,1144.00
2018-06-01T04:10:13.497Z,1176.00
2018-06-01T04:11:13.496Z,1220.00
2018-06-01T04:12:13.506Z,1280.00
2018-06-01T04:13:13.516Z,1320.00
2018-06-01T04:14:13.524Z,1360.00
2018-06-01T04:15:13.532Z,1380.00
2018-06-01T04:16:13.545Z,1388.00
2018-06-01T04:17:13.558Z,1380.00
2018-06-01T04:18:13.570Z,1376.00
2018-06-01T04:19:13.583Z,1360.00
2018-06-01T04:20:13.602Z,1336.00
2018-06-01T04:21:13.611Z,1300.00
2018-06-01T04:22:13.615Z,1248.00
2018-06-01T04:23:13.628Z,1192.00
2018-06-01T04:24:13.652Z,1148.00
2018-06-01T04:25:13.650Z,1112.00
2018-06-01T04:26:13.669Z,1116.00
2018-06-01T04:27:13.672Z,1108.00
2018-06-01T04:28:13.688Z,1156.00
2018-06-01T04:29:13.698Z,1188.00
2018-06-01T04:30:13.737Z,1164.00
2018-06-01T04:31:13.729Z,1172.00
2018-06-01T04:32:13.738Z,1192.00
2018-06-01T04:33:14.559Z,1212.00
2018-06-01T04:34:13.757Z,1228.00
2018-06-01T04:35:13.768Z,1248.00
2018-06-01T04:36:13.778Z,1256.00
2018-06-01T04:37:13.789Z,1260.00
2018-06-01T04:38:13.814Z,1264.00
2018-06-01T04:39:13.818Z,1280.00
2018-06-01T04:40:13.820Z,1276.00
2018-06-01T04:41:13.837Z,1312.00
2018-06-01T04:42:13.854Z,1328.00
2018-06-01T04:43:13.855Z,1348.00
2018-06-01T04:44:14.637Z,1360.00
2018-06-01T04:45:13.882Z,1376.00
2018-06-01T04:46:13.894Z,1384.00
2018-06-01T04:47:13.899Z,1392.00
2018-06-01T04:48:13.916Z,1404.00
2018-06-01T04:49:13.960Z,1420.00
2018-06-01T04:50:13.939Z,1432.00
2018-06-01T04:51:13.945Z,1448.00
2018-06-01T04:52:13.963Z,1452.00
2018-06-01T04:53:13.970Z,1464.00
2018-06-01T04:54:13.981Z,1472.00
2018-06-01T04:55:13.994Z,1484.00
2018-06-01T04:56:14.036Z,1508.00
2018-06-01T04:57:14.012Z,1524.00
2018-06-01T04:58:14.023Z,1532.00
2018-06-01T04:59:14.039Z,1540.00
2018-06-01T05:00:14.048Z,1552.00
2018-06-01T05:01:14.066Z,1560.00
2018-06-01T05:02:14.071Z,1568.00
2018-06-01T05:03:14.081Z,1580.00
2018-06-01T05:04:14.099Z,1588.00
2018-06-01T05:05:14.108Z,1596.00
2018-06-01T05:06:14.120Z,1604.00
2018-06-01T05:07:14.147Z,1616.00
2018-06-01T05:08:14.141Z,1624.00
2018-06-01T05:09:14.154Z,1636.00
2018-06-01T05:10:14.163Z,1648.00
2018-06-01T05:11:14.178Z,1660.00
2018-06-01T05:12:14.187Z,1668.00
2018-06-01T05:13:14.203Z,1676.00
2018-06-01T05:14:14.208Z,1688.00
2018-06-01T05:15:14.218Z,1696.00
2018-06-01T05:16:14.232Z,1704.00
2018-06-01T05:17:14.244Z,1712.00
2018-06-01T05:18:14.252Z,1716.00
2018-06-01T05:19:14.271Z,1732.00
2018-06-01T05:20:14.277Z,1740.00
2018-06-01T05:21:14.290Z,1744.00
2018-06-01T05:22:14.351Z,1756.00
2018-06-01T05:23:14.314Z,1752.00
2018-06-01T05:24:14.325Z,1776.00
2018-06-01T05:25:14.340Z,1792.00
2018-06-01T05:26:14.346Z,1800.00
2018-06-01T05:27:14.358Z,1812.00
2018-06-01T05:28:15.062Z,1828.00
2018-06-01T05:29:14.382Z,1868.00
2018-06-01T05:30:14.390Z,1872.00
2018-06-01T05:31:14.425Z,2040.00
2018-06-01T05:32:14.415Z,1876.00
2018-06-01T05:33:14.436Z,1920.00
2018-06-01T05:34:14.445Z,1912.00
2018-06-01T05:35:14.467Z,2164.00
2018-06-01T05:36:14.461Z,2108.00
2018-06-01T05:37:14.495Z,2148.00
2018-06-01T05:38:14.485Z,2616.00
2018-06-01T05:39:14.498Z,2104.00
2018-06-01T05:40:14.507Z,2452.00
2018-06-01T05:41:14.517Z,2364.00
2018-06-01T05:42:14.533Z,2460.00
2018-06-01T05:43:14.550Z,2356.00
2018-06-01T05:44:14.560Z,2272.00
2018-06-01T05:45:14.565Z,3476.00
2018-06-01T05:46:14.577Z,2844.00
2018-06-01T05:47:14.600Z,2120.00
2018-06-01T05:48:14.601Z,2368.00
2018-06-01T05:49:14.611Z,2340.00
2018-06-01T05:50:14.628Z,2520.00
2018-06-01T05:51:14.647Z,2932.00
2018-06-01T05:52:14.648Z,2648.00
2018-06-01T05:53:14.657Z,2532.00
2018-06-01T05:54:14.673Z,3400.00
2018-06-01T05:55:14.692Z,2652.00
2018-06-01T05:56:14.704Z,2168.00
2018-06-01T05:57:14.705Z,2220.00
2018-06-01T05:58:14.722Z,1952.00
2018-06-01T05:59:14.731Z,2600.00
2018-06-01T06:00:14.738Z,2172.00
2018-06-01T06:01:14.751Z,2904.00
2018-06-01T06:02:14.771Z,3728.00
2018-06-01T06:03:14.776Z,2588.00
2018-06-01T06:04:14.789Z,2344.00
2018-06-01T06:05:14.798Z,2836.00
2018-06-01T06:06:14.811Z,2744.00
2018-06-01T06:07:14.825Z,3620.00
2018-06-01T06:08:14.889Z,3648.00
2018-06-01T06:09:14.845Z,3088.00
2018-06-01T06:10:14.856Z,3780.00
2018-06-01T06:11:14.875Z,5312.00
2018-06-01T06:12:14.882Z,3540.00
2018-06-01T06:13:14.961Z,3884.00
2018-06-01T06:14:14.911Z,4584.00
2018-06-01T06:15:14.923Z,3708.00
2018-06-01T06:16:14.929Z,3684.00
2018-06-01T06:17:14.943Z,4648.00
2018-06-01T06:18:14.952Z,4296.00
2018-06-01T06:19:14.962Z,2940.00
2018-06-01T06:20:14.974Z,2584.00
2018-06-01T06:21:14.990Z,2208.00
2018-06-01T06:22:15.000Z,2060.00
2018-06-01T06:23:15.019Z,1996.00
2018-06-01T06:24:15.026Z,1868.00
2018-06-01T06:25:15.038Z,2056.00
2018-06-01T06:26:15.087Z,2500.00
2018-06-01T06:27:15.061Z,2596.00
2018-06-01T06:28:15.071Z,2348.00
2018-06-01T06:29:15.121Z,2320.00
2018-06-01T06:30:15.094Z,2360.00
2018-06-01T06:31:15.106Z,2564.00
2018-06-01T06:32:15.122Z,2424.00
2018-06-01T06:33:15.130Z,2492.00
2018-06-01T06:34:15.146Z,2668.00
2018-06-01T06:35:15.160Z,2812.00
2018-06-01T06:36:15.182Z,2948.00
2018-06-01T06:37:15.184Z,3104.00
2018-06-01T06:38:15.191Z,2948.00
2018-06-01T06:39:15.210Z,3048.00
2018-06-01T06:40:15.212Z,3004.00
2018-06-01T06:41:15.231Z,2916.00
2018-06-01T06:42:15.239Z,2808.00
2018-06-01T06:43:15.264Z,2632.00
2018-06-01T06:44:15.268Z,2324.00
2018-06-01T06:45:15.273Z,2548.00
2018-06-01T06:46:15.284Z,2640.00
2018-06-01T06:47:15.300Z,2776.00
2018-06-01T06:48:15.309Z,2852.00
2018-06-01T06:49:15.345Z,2932.00
2018-06-01T06:50:15.333Z,3036.00
2018-06-01T06:51:15.361Z,3156.00
2018-06-01T06:52:15.358Z,3184.00
2018-06-01T06:53:15.365Z,3152.00
2018-06-01T06:54:15.380Z,3096.00
2018-06-01T06:55:15.425Z,3092.00
2018-06-01T06:56:15.403Z,3188.00
2018-06-01T06:57:15.420Z,3352.00
2018-06-01T06:58:15.433Z,3356.00
2018-06-01T06:59:15.445Z,3512.00
2018-06-01T07:00:15.468Z,3528.00
2018-06-01T07:01:15.470Z,3572.00
2018-06-01T07:02:15.476Z,3824.00
2018-06-01T07:03:15.504Z,3928.00
2018-06-01T07:04:15.506Z,4484.00
2018-06-01T07:05:15.511Z,5256.00
2018-06-01T07:06:15.530Z,5888.00
2018-06-01T07:07:15.544Z,6348.00
2018-06-01T07:08:15.551Z,6780.00
2018-06-01T07:09:15.564Z,7004.00
2018-06-01T07:10:15.575Z,7508.00
2018-06-01T07:11:15.587Z,7652.00
2018-06-01T07:12:15.598Z,8136.00
2018-06-01T07:13:15.613Z,8208.00
2018-06-01T07:14:15.625Z,8576.00
2018-06-01T07:15:15.636Z,7836.00
2018-06-01T07:16:15.652Z,7652.00
2018-06-01T07:17:15.658Z,8128.00
2018-06-01T07:18:15.744Z,6736.00
2018-06-01T07:19:15.683Z,6500.00
2018-06-01T07:20:15.754Z,5084.00
2018-06-01T07:21:15.714Z,4996.00
2018-06-01T07:22:15.735Z,4404.00
2018-06-01T07:23:15.739Z,4648.00
2018-06-01T07:24:15.781Z,5000.00
2018-06-01T07:25:15.767Z,3780.00
2018-06-01T07:26:15.773Z,5556.00
2018-06-01T07:27:15.786Z,4824.00
2018-06-01T07:28:15.797Z,4452.00
2018-06-01T07:29:15.811Z,3760.00
2018-06-01T07:30:15.825Z,3660.00
2018-06-01T07:31:15.849Z,4376.00
2018-06-01T07:32:15.856Z,3908.00
2018-06-01T07:33:15.867Z,4512.00
2018-06-01T07:34:15.882Z,5452.00
2018-06-01T07:35:15.896Z,4672.00
2018-06-01T07:36:15.900Z,4604.00
2018-06-01T07:37:15.915Z,5948.00
2018-06-01T07:38:15.961Z,4312.00
2018-06-01T07:39:15.936Z,4104.00
2018-06-01T07:40:15.948Z,3108.00
2018-06-01T07:41:15.965Z,3080.00
2018-06-01T07:42:15.974Z,3636.00
2018-06-01T07:43:15.999Z,4524.00
2018-06-01T07:44:16.001Z,4896.00
2018-06-01T07:45:16.012Z,6456.00
2018-06-01T07:46:16.044Z,6248.00
2018-06-01T07:47:16.039Z,5508.00
2018-06-01T07:48:16.062Z,5372.00
2018-06-01T07:49:16.064Z,4792.00
2018-06-01T07:50:16.077Z,4692.00
2018-06-01T07:51:16.090Z,5032.00
2018-06-01T07:52:16.102Z,5888.00
2018-06-01T07:53:16.121Z,7320.00
2018-06-01T07:54:16.152Z,7884.00
2018-06-01T07:55:16.143Z,7368.00
2018-06-01T07:56:16.158Z,7408.00
2018-06-01T07:57:16.172Z,8752.00
2018-06-01T07:58:16.176Z,7816.00
2018-06-01T07:59:16.195Z,8020.00
2018-06-01T08:00:16.203Z,8532.00
2018-06-01T08:01:16.230Z,9296.00
2018-06-01T08:02:16.233Z,9668.00
2018-06-01T08:03:16.268Z,10112.00
2018-06-01T08:04:16.255Z,9480.00
2018-06-01T08:05:16.275Z,10308.00
2018-06-01T08:06:16.290Z,9180.00
2018-06-01T08:07:16.295Z,8720.00
2018-06-01T08:08:16.309Z,8808.00
2018-06-01T08:09:16.378Z,9836.00
2018-06-01T08:10:16.340Z,9696.00
2018-06-01T08:11:16.352Z,10548.00
2018-06-01T08:12:16.377Z,11448.00
2018-06-01T08:13:16.376Z,12724.00
2018-06-01T08:14:16.386Z,11408.00
2018-06-01T08:15:16.403Z,12016.00
2018-06-01T08:16:16.414Z,11348.00
2018-06-01T08:17:16.428Z,11136.00
2018-06-01T08:18:16.442Z,12076.00
2018-06-01T08:19:16.457Z,12856.00
2018-06-01T08:20:16.518Z,11592.00
2018-06-01T08:21:16.482Z,12072.00
2018-06-01T08:22:16.513Z,13008.00
2018-06-01T08:23:16.522Z,12188.00
2018-06-01T08:24:16.523Z,10248.00
2018-06-01T08:25:16.537Z,9636.00
2018-06-01T08:26:16.553Z,9612.00
2018-06-01T08:27:16.565Z,9972.00
2018-06-01T08:28:16.589Z,9388.00
2018-06-01T08:29:16.594Z,9164.00
2018-06-01T08:30:16.609Z,8204.00
2018-06-01T08:31:16.620Z,8028.00
2018-06-01T08:32:16.650Z,7820.00
2018-06-01T08:33:16.647Z,7720.00
2018-06-01T08:34:16.669Z,8456.00
2018-06-01T08:35:16.674Z,9292.00
2018-06-01T08:36:16.688Z,9976.00
2018-06-01T08:37:16.701Z,9564.00
2018-06-01T08:38:16.713Z,9896.00
2018-06-01T08:39:16.736Z,9988.00
2018-06-01T08:40:16.744Z,10120.00
2018-06-01T08:41:16.756Z,10180.00
2018-06-01T08:42:16.778Z,10312.00
2018-06-01T08:43:16.784Z,9844.00
2018-06-01T08:44:16.819Z,9684.00
2018-06-01T08:45:16.811Z,9752.00
2018-06-01T08:46:16.836Z,10432.00
2018-06-01T08:47:16.846Z,11280.00
2018-06-01T08:48:16.855Z,10184.00
2018-06-01T08:49:16.867Z,7468.00
2018-06-01T08:50:16.898Z,7808.00
2018-06-01T08:51:16.898Z,9836.00
2018-06-01T08:52:16.913Z,8868.00
2018-06-01T08:53:16.926Z,9648.00
2018-06-01T08:54:16.937Z,10432.00
2018-06-01T08:55:16.956Z,9184.00
2018-06-01T08:56:16.974Z,8876.00
2018-06-01T08:57:16.979Z,8612.00
2018-06-01T08:58:16.996Z,10072.00
2018-06-01T08:59:17.043Z,9524.00
2018-06-01T09:00:17.021Z,9716.00
2018-06-01T09:01:17.038Z,11444.00
2018-06-01T09:02:17.056Z,9764.00
2018-06-01T09:03:17.067Z,9120.00
2018-06-01T09:04:17.078Z,8016.00
2018-06-01T09:05:17.094Z,7064.00
2018-06-01T09:06:17.109Z,7148.00
2018-06-01T09:07:17.125Z,7848.00
2018-06-01T09:08:17.134Z,8632.00
2018-06-01T09:09:17.159Z,10048.00
2018-06-01T09:10:17.188Z,9892.00
2018-06-01T09:11:17.184Z,10448.00
2018-06-01T09:12:17.190Z,11084.00
2018-06-01T09:13:17.202Z,10932.00
2018-06-01T09:14:17.218Z,10468.00
2018-06-01T09:15:17.234Z,11332.00
2018-06-01T09:16:17.249Z,12376.00
2018-06-01T09:17:17.257Z,12388.00
2018-06-01T09:18:17.286Z,13428.00
2018-06-01T09:19:17.288Z,15164.00
2018-06-01T09:20:17.309Z,13532.00
2018-06-01T09:21:17.321Z,13132.00
2018-06-01T09:22:17.383Z,12600.00
2018-06-01T09:23:17.344Z,11012.00
2018-06-01T09:24:17.363Z,10400.00
2018-06-01T09:25:17.408Z,10448.00
2018-06-01T09:26:17.387Z,8816.00
2018-06-01T09:27:17.414Z,8124.00
2018-06-01T09:28:17.461Z,6804.00
2018-06-01T09:29:17.428Z,6216.00
2018-06-01T09:30:17.443Z,6308.00
2018-06-01T09:31:17.457Z,6608.00
2018-06-01T09:32:17.472Z,6660.00
2018-06-01T09:33:17.487Z,6804.00
2018-06-01T09:34:17.505Z,6744.00
2018-06-01T09:35:17.515Z,6192.00
2018-06-01T09:36:17.535Z,6720.00
2018-06-01T09:37:17.544Z,8468.00
2018-06-01T09:38:17.555Z,9420.00
2018-06-01T09:39:17.582Z,10108.00
2018-06-01T09:40:17.592Z,11312.00
2018-06-01T09:41:17.597Z,11604.00
2018-06-01T09:42:17.624Z,12200.00
2018-06-01T09:43:17.631Z,12272.00
2018-06-01T09:44:17.643Z,11360.00
2018-06-01T09:45:17.662Z,12256.00
2018-06-01T09:46:17.692Z,14116.00
2018-06-01T09:47:17.695Z,15132.00
2018-06-01T09:48:17.697Z,15780.00
2018-06-01T09:49:17.724Z,16768.00
2018-06-01T09:50:17.727Z,16960.00
2018-06-01T09:51:17.743Z,16928.00
2018-06-01T09:52:17.757Z,17024.00
2018-06-01T09:53:17.774Z,17184.00
2018-06-01T09:54:17.788Z,17344.00
2018-06-01T09:55:17.808Z,17248.00
2018-06-01T09:56:17.821Z,17088.00
2018-06-01T09:57:17.827Z,16576.00
2018-06-01T09:58:17.844Z,16192.00
2018-06-01T09:59:17.855Z,15844.00
2018-06-01T10:00:17.873Z,16480.00
2018-06-01T10:01:17.887Z,16864.00
2018-06-01T10:02:17.903Z,17408.00
2018-06-01T10:03:17.924Z,18016.00
2018-06-01T10:04:17.936Z,18208.00
2018-06-01T10:05:17.950Z,18016.00
2018-06-01T10:06:17.963Z,17696.00
2018-06-01T10:07:17.984Z,17952.00
2018-06-01T10:08:17.991Z,18752.00
2018-06-01T10:09:18.008Z,19008.00
2018-06-01T10:10:18.022Z,18944.00
2018-06-01T10:11:18.039Z,18176.00
2018-06-01T10:12:18.052Z,16544.00
2018-06-01T10:13:18.066Z,15436.00
2018-06-01T10:14:18.086Z,15420.00
2018-06-01T10:15:18.103Z,15176.00
2018-06-01T10:16:18.121Z,14268.00
2018-06-01T10:17:18.134Z,14252.00
2018-06-01T10:18:18.147Z,14316.00
2018-06-01T10:19:18.191Z,15116.00
2018-06-01T10:20:18.174Z,16192.00
2018-06-01T10:21:18.190Z,16896.00
2018-06-01T10:22:18.238Z,17792.00
2018-06-01T10:23:18.225Z,17056.00
2018-06-01T10:24:18.238Z,17344.00
2018-06-01T10:25:18.258Z,18080.00
2018-06-01T10:26:18.271Z,17120.00
2018-06-01T10:27:18.293Z,16992.00
2018-06-01T10:28:18.313Z,17152.00
2018-06-01T10:29:18.321Z,17408.00
2018-06-01T10:30:18.337Z,18528.00
2018-06-01T10:31:18.347Z,19392.00
2018-06-01T10:32:18.387Z,19712.00
2018-06-01T10:33:18.385Z,20320.00
2018-06-01T10:34:18.400Z,20608.00
2018-06-01T10:35:18.417Z,20160.00
2018-06-01T10:36:18.423Z,19488.00
2018-06-01T10:37:18.453Z,18944.00
2018-06-01T10:38:18.473Z,19168.00
2018-06-01T10:39:18.514Z,19168.00
2018-06-01T10:40:18.493Z,19328.00
2018-06-01T10:41:19.169Z,18848.00
2018-06-01T10:42:18.523Z,19296.00
2018-06-01T10:43:18.538Z,21216.00
2018-06-01T10:44:18.552Z,19808.00
2018-06-01T10:45:18.584Z,18848.00
2018-06-01T10:46:18.580Z,15624.00
2018-06-01T10:47:18.605Z,14100.00
2018-06-01T10:48:18.640Z,14480.00
2018-06-01T10:49:18.630Z,15192.00
2018-06-01T10:50:18.646Z,15352.00
2018-06-01T10:51:18.658Z,16316.00
2018-06-01T10:52:18.675Z,16896.00
2018-06-01T10:53:18.702Z,16864.00
2018-06-01T10:54:18.768Z,16768.00
2018-06-01T10:55:18.724Z,16704.00
2018-06-01T10:56:18.739Z,16896.00
2018-06-01T10:57:18.789Z,17472.00
2018-06-01T10:58:18.770Z,17280.00
2018-06-01T10:59:18.786Z,17696.00
2018-06-01T11:00:18.806Z,18016.00
2018-06-01T11:01:18.821Z,17152.00
2018-06-01T11:02:18.837Z,15704.00
2018-06-01T11:03:18.852Z,14340.00
2018-06-01T11:04:18.866Z,14556.00
2018-06-01T11:05:18.888Z,16704.00
2018-06-01T11:06:18.895Z,16864.00
2018-06-01T11:07:18.911Z,16028.00
2018-06-01T11:08:18.987Z,19936.00
2018-06-01T11:09:18.943Z,14984.00
2018-06-01T11:10:18.959Z,11396.00
2018-06-01T11:11:18.982Z,12296.00
2018-06-01T11:12:18.991Z,15148.00
2018-06-01T11:13:19.008Z,16896.00
2018-06-01T11:14:19.026Z,18112.00
2018-06-01T11:15:19.040Z,16192.00
2018-06-01T11:16:19.056Z,9684.00
2018-06-01T11:17:19.085Z,8996.00
2018-06-01T11:18:19.091Z,9016.00
2018-06-01T11:19:19.103Z,8624.00
2018-06-01T11:20:19.118Z,9364.00
2018-06-01T11:21:19.182Z,10084.00
2018-06-01T11:22:19.153Z,13296.00
2018-06-01T11:23:19.167Z,13760.00
2018-06-01T11:24:19.223Z,10768.00
2018-06-01T11:25:19.203Z,12596.00
2018-06-01T11:26:19.220Z,10252.00
2018-06-01T11:27:19.263Z,10452.00
2018-06-01T11:28:19.246Z,11420.00
2018-06-01T11:29:19.263Z,10640.00
2018-06-01T11:30:19.277Z,13140.00
2018-06-01T11:31:19.292Z,16988.00
2018-06-01T11:32:19.322Z,127776.00
2018-06-01T11:33:19.339Z,133440.00
2018-06-01T11:34:20.180Z,132480.00
2018-06-01T11:35:19.357Z,137504.00
2018-06-01T11:36:19.374Z,19872.00
2018-06-01T11:37:19.430Z,119680.00
2018-06-01T11:38:19.419Z,45280.00
2018-06-01T11:39:19.428Z,13492.00
2018-06-01T11:40:19.442Z,14896.00
2018-06-01T11:41:19.462Z,132224.00
2018-06-01T11:42:19.494Z,132960.00
2018-06-01T11:43:19.499Z,132544.00
2018-06-01T11:44:19.525Z,130144.00
2018-06-01T11:45:19.535Z,128608.00
2018-06-01T11:46:19.564Z,131104.00
2018-06-01T11:47:19.578Z,133760.00
2018-06-01T11:48:19.598Z,135168.00
2018-06-01T11:49:19.617Z,36608.00
2018-06-01T11:50:19.640Z,132864.00
2018-06-01T11:51:19.707Z,27328.00
2018-06-01T11:52:19.684Z,122496.00
2018-06-01T11:53:19.705Z,11320.00
2018-06-01T11:54:19.731Z,12776.00
2018-06-01T11:55:19.750Z,14652.00
2018-06-01T11:56:19.781Z,86144.00
2018-06-01T11:57:19.823Z,138208.00
2018-06-01T11:58:19.814Z,141920.00
2018-06-01T11:59:19.860Z,143296.00
2018-06-01T12:00:19.862Z,141440.00
2018-06-01T12:01:19.879Z,140384.00
2018-06-01T12:02:19.899Z,119712.00
2018-06-01T12:03:20.682Z,126464.00
2018-06-01T12:04:19.946Z,126336.00
2018-06-01T12:05:19.966Z,124224.00
2018-06-01T12:06:19.996Z,128832.00
2018-06-01T12:07:20.034Z,17664.00
2018-06-01T12:08:20.078Z,14776.00
2018-06-01T12:09:20.059Z,15232.00
2018-06-01T12:10:20.081Z,72768.00
2018-06-01T12:11:20.107Z,128832.00
2018-06-01T12:12:20.130Z,126592.00
2018-06-01T12:13:20.153Z,121760.00
2018-06-01T12:14:20.178Z,119520.00
2018-06-01T12:15:20.201Z,115232.00
2018-06-01T12:16:20.234Z,110880.00
2018-06-01T12:17:20.249Z,104192.00
2018-06-01T12:18:20.274Z,99840.00